Time,TemperatureF,DewpointF,PressureIn,WindDirection,WindDirectionDegrees,WindSpeedMPH,WindSpeedGustMPH,Humidity,HourlyPrecipIn,Conditions,Clouds,dailyrainin,SolarRadiationWatts/m^2,SoftwareType,DateUTC
2013-05-19 00:11:00,35.5,16.0,30.19,West,259,9.0,13.0,46,0.00,,,0.00,0,weatherlink.com 1.10,2013-05-19 08:11:00,
2013-05-19 00:26:00,35.5,16.0,30.20,West,279,4.0,13.0,46,0.00,,,0.00,0,weatherlink.com 1.10,2013-05-19 08:26:00,
2013-05-19 00:41:00,35.3,16.0,30.20,West,265,4.0,12.0,45,0.00,,,0.00,0,weatherlink.com 1.10,2013-05-19 08:41:00,
2013-05-19 00:56:00,35.0,15.0,30.21,WNW,300,9.0,13.0,45,0.00,,,0.00,0,weatherlink.com 1.10,2013-05-19 08:56:00,
2013-05-19 01:11:00,34.7,16.0,30.22,WNW,287,5.0,11.0,47,0.00,,,0.00,0,weatherlink.com 1.10,2013-05-19 09:11:00,
2013-05-19 01:26:00,34.6,16.0,30.23,WNW,290,5.0,10.0,46,0.00,,,0.00,0,weatherlink.com 1.10,2013-05-19 09:26:00,
2013-05-19 01:41:00,34.7,18.0,30.23,North,5,4.0,10.0,50,0.00,,,0.00,0,weatherlink.com 1.10,2013-05-19 09:41:00,
2013-05-19 01:56:00,34.5,16.0,30.24,North,5,4.0,10.0,46,0.00,,,0.00,0,weatherlink.com 1.10,2013-05-19 09:56:00,
2013-05-19 02:12:00,34.0,16.0,30.25,NNW,333,7.0,12.0,47,0.00,,,0.00,0,weatherlink.com 1.10,2013-05-19 10:12:00,
2013-05-19 02:27:00,33.8,16.0,30.25,NNW,335,5.0,9.0,49,0.00,,,0.00,0,weatherlink.com 1.10,2013-05-19 10:27:00,
2013-05-19 02:42:00,33.7,15.0,30.27,WNW,289,6.0,12.0,46,0.00,,,0.00,0,weatherlink.com 1.10,2013-05-19 10:42:00,
2013-05-19 02:57:00,33.6,15.0,30.27,NW,307,6.0,11.0,46,0.00,,,0.00,0,weatherlink.com 1.10,2013-05-19 10:57:00,
2013-05-19 03:12:00,33.3,15.0,30.28,WNW,297,10.0,10.0,47,0.00,,,0.00,0,weatherlink.com 1.10,2013-05-19 11:12:00,
2013-05-19 03:27:00,33.8,18.0,30.29,NNW,338,2.0,7.0,53,0.00,,,0.00,0,weatherlink.com 1.10,2013-05-19 11:27:00,
2013-05-19 03:42:00,33.5,15.0,30.29,West,271,2.0,10.0,47,0.00,,,0.00,0,weatherlink.com 1.10,2013-05-19 11:42:00,
2013-05-19 03:57:00,32.9,17.0,30.30,West,263,5.0,5.0,52,0.00,,,0.00,0,weatherlink.com 1.10,2013-05-19 11:57:00,
2013-05-19 04:12:00,35.6,21.0,30.30,North,5,4.0,5.0,55,0.00,,,0.00,0,weatherlink.com 1.10,2013-05-19 12:12:00,
2013-05-19 04:27:00,32.9,16.0,30.31,WNW,301,4.0,9.0,50,0.00,,,0.00,0,weatherlink.com 1.10,2013-05-19 12:27:00,
2013-05-19 04:42:00,32.4,16.0,30.31,WNW,289,5.0,7.0,51,0.00,,,0.00,0,weatherlink.com 1.10,2013-05-19 12:42:00,
2013-05-19 04:57:00,31.8,16.0,30.32,West,275,4.0,8.0,52,0.00,,,0.00,0,weatherlink.com 1.10,2013-05-19 12:57:00,
2013-05-19 05:12:00,33.7,19.0,30.33,West,279,1.0,5.0,56,0.00,,,0.00,7,weatherlink.com 1.10,2013-05-19 13:12:00,
2013-05-19 05:27:00,31.8,18.0,30.34,West,279,1.0,2.0,56,0.00,,,0.00,11,weatherlink.com 1.10,2013-05-19 13:27:00,
2013-05-19 05:42:00,35.6,27.0,30.34,West,279,1.0,4.0,71,0.00,,,0.00,18,weatherlink.com 1.10,2013-05-19 13:42:00,
2013-05-19 05:57:00,34.1,18.0,30.35,West,279,2.0,2.0,51,0.00,,,0.00,51,weatherlink.com 1.10,2013-05-19 13:57:00,
2013-05-19 06:12:00,33.3,25.0,30.35,West,279,2.0,5.0,71,0.00,,,0.00,76,weatherlink.com 1.10,2013-05-19 14:12:00,
2013-05-19 06:27:00,35.7,28.0,30.36,West,279,2.0,3.0,74,0.00,,,0.00,105,weatherlink.com 1.10,2013-05-19 14:27:00,
2013-05-19 06:42:00,35.0,25.0,30.37,West,279,1.0,2.0,67,0.00,,,0.00,141,weatherlink.com 1.10,2013-05-19 14:42:00,
2013-05-19 06:57:00,34.3,24.0,30.38,West,279,0.0,2.0,65,0.00,,,0.00,178,weatherlink.com 1.10,2013-05-19 14:57:00,
2013-05-19 07:12:00,34.2,21.0,30.38,West,279,1.0,2.0,59,0.00,,,0.00,216,weatherlink.com 1.10,2013-05-19 15:12:00,
2013-05-19 07:27:00,34.0,20.0,30.39,West,279,1.0,4.0,57,0.00,,,0.00,250,weatherlink.com 1.10,2013-05-19 15:27:00,
2013-05-19 07:42:00,34.1,21.0,30.39,West,279,0.0,4.0,58,0.00,,,0.00,283,weatherlink.com 1.10,2013-05-19 15:42:00,
2013-05-19 07:58:00,34.8,19.0,30.40,West,279,1.0,2.0,53,0.00,,,0.00,316,weatherlink.com 1.10,2013-05-19 15:58:00,
2013-05-19 08:13:00,33.8,17.0,30.41,WSW,248,6.0,7.0,50,0.00,,,0.00,352,weatherlink.com 1.10,2013-05-19 16:13:00,
2013-05-19 08:28:00,32.9,17.0,30.42,WSW,248,6.0,8.0,52,0.00,,,0.00,385,weatherlink.com 1.10,2013-05-19 16:28:00,
2013-05-19 08:43:00,32.9,17.0,30.42,WSW,240,1.0,7.0,52,0.00,,,0.00,417,weatherlink.com 1.10,2013-05-19 16:43:00,
2013-05-19 08:58:00,33.3,15.0,30.43,WSW,238,5.0,9.0,48,0.00,,,0.00,448,weatherlink.com 1.10,2013-05-19 16:58:00,
2013-05-19 09:13:00,33.9,16.0,30.44,WSW,250,3.0,7.0,48,0.00,,,0.00,478,weatherlink.com 1.10,2013-05-19 17:13:00,
2013-05-19 09:28:00,34.4,16.0,30.44,WNW,283,4.0,6.0,47,0.00,,,0.00,508,weatherlink.com 1.10,2013-05-19 17:28:00,
2013-05-19 09:43:00,36.2,16.0,30.45,WNW,295,4.0,9.0,44,0.00,,,0.00,540,weatherlink.com 1.10,2013-05-19 17:43:00,
2013-05-19 09:58:00,36.7,15.0,30.45,West,280,5.0,10.0,41,0.00,,,0.00,566,weatherlink.com 1.10,2013-05-19 17:58:00,
2013-05-19 10:13:00,36.4,15.0,30.46,West,259,8.0,11.0,41,0.00,,,0.00,589,weatherlink.com 1.10,2013-05-19 18:13:00,
2013-05-19 10:28:00,36.8,14.0,30.46,West,264,13.0,13.0,40,0.00,,,0.00,615,weatherlink.com 1.10,2013-05-19 18:28:00,
2013-05-19 10:43:00,37.4,16.0,30.47,West,278,6.0,12.0,41,0.00,,,0.00,640,weatherlink.com 1.10,2013-05-19 18:43:00,
2013-05-19 10:58:00,37.8,16.0,30.47,SW,228,8.0,9.0,42,0.00,,,0.00,661,weatherlink.com 1.10,2013-05-19 18:58:00,
2013-05-19 11:13:00,38.1,16.0,30.48,WSW,250,1.0,8.0,41,0.00,,,0.00,680,weatherlink.com 1.10,2013-05-19 19:13:00,
2013-05-19 11:28:00,38.9,17.0,30.48,SW,234,2.0,8.0,41,0.00,,,0.00,696,weatherlink.com 1.10,2013-05-19 19:28:00,
2013-05-19 11:43:00,39.7,16.0,30.49,SW,216,4.0,10.0,39,0.00,,,0.00,714,weatherlink.com 1.10,2013-05-19 19:43:00,
2013-05-19 11:58:00,39.9,16.0,30.49,West,263,5.0,12.0,38,0.00,,,0.00,53,weatherlink.com 1.10,2013-05-19 19:58:00,
2013-05-19 12:13:00,40.7,16.0,30.50,West,261,2.0,7.0,37,0.00,,,0.00,49,weatherlink.com 1.10,2013-05-19 20:13:00,
2013-05-19 12:28:00,40.2,16.0,30.50,West,273,4.0,9.0,38,0.00,,,0.00,141,weatherlink.com 1.10,2013-05-19 20:28:00,
2013-05-19 12:44:00,40.7,17.0,30.51,SW,227,4.0,10.0,38,0.00,,,0.00,371,weatherlink.com 1.10,2013-05-19 20:44:00,
2013-05-19 12:59:00,40.4,16.0,30.51,SW,227,7.0,10.0,37,0.00,,,0.00,49,weatherlink.com 1.10,2013-05-19 20:59:00,
2013-05-19 13:14:00,41.2,17.0,30.52,SW,231,0.0,9.0,37,0.00,,,0.00,46,weatherlink.com 1.10,2013-05-19 21:14:00,
2013-05-19 13:29:00,41.7,18.0,30.52,West,270,8.0,11.0,38,0.00,,,0.00,46,weatherlink.com 1.10,2013-05-19 21:29:00,
2013-05-19 13:44:00,41.5,16.0,30.52,WSW,250,5.0,11.0,36,0.00,,,0.00,44,weatherlink.com 1.10,2013-05-19 21:44:00,
2013-05-19 13:59:00,42.3,18.0,30.52,WSW,256,7.0,12.0,37,0.00,,,0.00,44,weatherlink.com 1.10,2013-05-19 21:59:00,
2013-05-19 14:14:00,41.8,17.0,30.53,WSW,250,9.0,11.0,37,0.00,,,0.00,44,weatherlink.com 1.10,2013-05-19 22:14:00,
2013-05-19 14:29:00,42.2,17.0,30.52,WSW,253,3.0,10.0,36,0.00,,,0.00,44,weatherlink.com 1.10,2013-05-19 22:29:00,
2013-05-19 14:44:00,42.9,17.0,30.53,WSW,238,6.0,10.0,35,0.00,,,0.00,44,weatherlink.com 1.10,2013-05-19 22:44:00,
2013-05-19 14:59:00,43.5,19.0,30.53,WSW,238,2.0,10.0,38,0.00,,,0.00,46,weatherlink.com 1.10,2013-05-19 22:59:00,
2013-05-19 15:14:00,43.6,17.0,30.53,SW,235,10.0,13.0,35,0.00,,,0.00,46,weatherlink.com 1.10,2013-05-19 23:14:00,
2013-05-19 15:29:00,42.7,19.0,30.54,SSW,205,9.0,16.0,38,0.00,,,0.00,46,weatherlink.com 1.10,2013-05-19 23:29:00,
2013-05-19 15:44:00,43.1,18.0,30.54,WSW,237,6.0,14.0,37,0.00,,,0.00,708,weatherlink.com 1.10,2013-05-19 23:44:00,
2013-05-19 15:59:00,44.3,19.0,30.54,SW,219,10.0,15.0,37,0.00,,,0.00,689,weatherlink.com 1.10,2013-05-19 23:59:00,
2013-05-19 16:14:00,43.0,19.0,30.55,WSW,243,10.0,14.0,38,0.00,,,0.00,608,weatherlink.com 1.10,2013-05-20 00:14:00,
2013-05-19 16:29:00,43.4,19.0,30.55,SW,223,3.0,13.0,37,0.00,,,0.00,47,weatherlink.com 1.10,2013-05-20 00:29:00,
2013-05-19 16:44:00,44.0,20.0,30.55,WSW,250,13.0,15.0,38,0.00,,,0.00,631,weatherlink.com 1.10,2013-05-20 00:44:00,
2013-05-19 16:59:00,43.8,19.0,30.55,SSW,198,7.0,15.0,37,0.00,,,0.00,605,weatherlink.com 1.10,2013-05-20 00:59:00,
2013-05-19 17:14:00,44.0,19.0,30.55,SW,236,11.0,13.0,37,0.00,,,0.00,582,weatherlink.com 1.10,2013-05-20 01:14:00,
2013-05-19 17:29:00,44.0,19.0,30.55,SW,229,11.0,15.0,37,0.00,,,0.00,60,weatherlink.com 1.10,2013-05-20 01:29:00,
2013-05-19 17:44:00,44.1,19.0,30.55,SW,216,12.0,14.0,37,0.00,,,0.00,529,weatherlink.com 1.10,2013-05-20 01:44:00,
2013-05-19 17:59:00,43.7,18.0,30.55,SW,229,12.0,14.0,36,0.00,,,0.00,501,weatherlink.com 1.10,2013-05-20 01:59:00,
2013-05-19 18:14:00,45.0,19.0,30.55,WSW,241,9.0,14.0,35,0.00,,,0.00,299,weatherlink.com 1.10,2013-05-20 02:14:00,
2013-05-19 18:29:00,44.2,19.0,30.55,SW,215,10.0,12.0,36,0.00,,,0.00,443,weatherlink.com 1.10,2013-05-20 02:29:00,
2013-05-19 18:44:00,45.7,21.0,30.56,WSW,237,11.0,11.0,37,0.00,,,0.00,413,weatherlink.com 1.10,2013-05-20 02:44:00,
2013-05-19 18:59:00,45.3,19.0,30.56,SSW,209,7.0,14.0,35,0.00,,,0.00,383,weatherlink.com 1.10,2013-05-20 02:59:00,
2013-05-19 19:14:00,46.2,19.0,30.57,SSW,201,7.0,12.0,34,0.00,,,0.00,352,weatherlink.com 1.10,2013-05-20 03:14:00,
2013-05-19 19:29:00,46.2,19.0,30.57,SSW,203,5.0,13.0,34,0.00,,,0.00,323,weatherlink.com 1.10,2013-05-20 03:29:00,
2013-05-19 19:44:00,45.3,19.0,30.57,SSW,202,12.0,20.0,35,0.00,,,0.00,285,weatherlink.com 1.10,2013-05-20 03:44:00,
2013-05-19 19:59:00,45.0,19.0,30.58,SSW,207,12.0,16.0,35,0.00,,,0.00,262,weatherlink.com 1.10,2013-05-20 03:59:00,
2013-05-19 20:14:00,44.2,19.0,30.57,SSW,208,11.0,20.0,36,0.00,,,0.00,229,weatherlink.com 1.10,2013-05-20 04:14:00,
2013-05-19 20:29:00,44.9,19.0,30.58,SSW,198,5.0,14.0,36,0.00,,,0.00,190,weatherlink.com 1.10,2013-05-20 04:29:00,
2013-05-19 20:44:00,44.8,21.0,30.58,South,190,8.0,11.0,39,0.00,,,0.00,155,weatherlink.com 1.10,2013-05-20 04:44:00,
2013-05-19 20:59:00,43.5,19.0,30.58,South,184,8.0,12.0,38,0.00,,,0.00,120,weatherlink.com 1.10,2013-05-20 04:59:00,
2013-05-19 21:14:00,43.3,20.0,30.58,South,188,6.0,12.0,40,0.00,,,0.00,91,weatherlink.com 1.10,2013-05-20 05:14:00,
2013-05-19 21:29:00,43.3,21.0,30.58,South,190,0.0,9.0,41,0.00,,,0.00,65,weatherlink.com 1.10,2013-05-20 05:29:00,
2013-05-19 21:44:00,43.0,20.0,30.58,South,190,8.0,9.0,40,0.00,,,0.00,40,weatherlink.com 1.10,2013-05-20 05:44:00,
2013-05-19 21:59:00,42.6,21.0,30.59,South,190,6.0,9.0,42,0.00,,,0.00,26,weatherlink.com 1.10,2013-05-20 05:59:00,
2013-05-19 22:14:00,42.3,22.0,30.59,SSW,192,5.0,8.0,44,0.00,,,0.00,18,weatherlink.com 1.10,2013-05-20 06:14:00,
2013-05-19 22:29:00,41.9,22.0,30.59,SSW,193,4.0,5.0,46,0.00,,,0.00,12,weatherlink.com 1.10,2013-05-20 06:29:00,
2013-05-19 22:45:00,41.5,23.0,30.60,SSE,150,0.0,4.0,48,0.00,,,0.00,7,weatherlink.com 1.10,2013-05-20 06:45:00,
2013-05-19 23:00:00,41.1,24.0,30.60,SSE,150,3.0,5.0,50,0.00,,,0.00,0,weatherlink.com 1.10,2013-05-20 07:00:00,
2013-05-19 23:15:00,40.6,25.0,30.60,East,84,4.0,6.0,54,0.00,,,0.00,0,weatherlink.com 1.10,2013-05-20 07:15:00,
2013-05-19 23:30:00,39.7,25.0,30.60,East,80,5.0,6.0,57,0.00,,,0.00,0,weatherlink.com 1.10,2013-05-20 07:30:00,
2013-05-19 23:45:00,39.3,26.0,30.61,ENE,72,4.0,7.0,60,0.00,,,0.00,0,weatherlink.com 1.10,2013-05-20 07:45:00,